createdAt,value
2018-05-18T00:01:37.709Z,80.41
2018-05-18T00:04:03.568Z,79.86
2018-05-18T00:06:29.428Z,79.95
2018-05-18T00:08:55.325Z,79.98
2018-05-18T00:11:21.184Z,80.16
2018-05-18T00:13:47.041Z,81.35
2018-05-18T00:16:12.869Z,81.88
2018-05-18T00:18:38.736Z,81.69
2018-05-18T00:21:04.620Z,81.34
2018-05-18T00:23:30.481Z,81.30
2018-05-18T00:25:56.377Z,81.84
2018-05-18T00:28:22.245Z,82.59
2018-05-18T00:30:48.091Z,82.06
2018-05-18T00:33:13.934Z,81.06
2018-05-18T00:35:39.798Z,80.73
2018-05-18T00:38:05.664Z,80.37
2018-05-18T00:40:31.516Z,79.68
2018-05-18T00:42:57.346Z,79.75
2018-05-18T00:45:23.216Z,79.76
2018-05-18T00:47:49.093Z,79.53
2018-05-18T00:50:14.936Z,79.95
2018-05-18T00:52:40.764Z,79.38
2018-05-18T00:55:18.825Z,80.68
2018-05-18T00:57:44.685Z,81.98
2018-05-18T01:00:10.563Z,82.26
2018-05-18T01:02:36.516Z,81.18
2018-05-18T01:05:02.381Z,80.33
2018-05-18T01:07:28.214Z,80.24
2018-05-18T01:09:54.025Z,79.41
2018-05-18T01:12:19.888Z,80.36
2018-05-18T01:14:45.733Z,80.06
2018-05-18T01:17:11.568Z,82.66
2018-05-18T01:19:37.433Z,83.67
2018-05-18T01:22:03.314Z,82.95
2018-05-18T01:24:29.148Z,83.70
2018-05-18T01:26:54.993Z,83.69
2018-05-18T01:29:20.843Z,83.12
2018-05-18T01:31:46.701Z,81.74
2018-05-18T01:34:12.548Z,81.01
2018-05-18T01:36:38.370Z,81.06
2018-05-18T01:39:04.256Z,81.71
2018-05-18T01:41:30.139Z,81.32
2018-05-18T01:43:56.052Z,81.35
2018-05-18T01:46:21.930Z,82.64
2018-05-18T01:48:47.786Z,83.62
2018-05-18T01:51:13.657Z,83.03
2018-05-18T01:53:39.520Z,82.26
2018-05-18T01:56:05.369Z,81.19
2018-05-18T01:58:31.212Z,80.91
2018-05-18T02:00:57.069Z,80.61
2018-05-18T02:03:22.931Z,80.40
2018-05-18T02:05:48.808Z,81.12
2018-05-18T02:08:14.656Z,81.52
2018-05-18T02:10:40.492Z,81.24
2018-05-18T02:13:06.321Z,81.53
2018-05-18T02:15:32.159Z,82.09
2018-05-18T02:17:58.016Z,82.85
2018-05-18T02:20:23.865Z,83.68
2018-05-18T02:22:49.732Z,83.26
2018-05-18T02:25:15.583Z,83.35
2018-05-18T02:27:41.455Z,82.85
2018-05-18T02:30:07.358Z,82.32
2018-05-18T02:32:33.224Z,81.98
2018-05-18T02:34:59.088Z,81.56
2018-05-18T02:37:25.005Z,81.27
2018-05-18T02:39:50.858Z,81.12
2018-05-18T02:42:16.741Z,81.37
2018-05-18T02:44:42.645Z,81.62
2018-05-18T02:47:08.511Z,82.91
2018-05-18T02:49:34.396Z,82.64
2018-05-18T02:52:00.225Z,83.42
2018-05-18T02:54:26.086Z,83.11
2018-05-18T02:56:51.936Z,82.45
2018-05-18T02:59:17.761Z,81.34
2018-05-18T03:01:43.618Z,81.31
2018-05-18T03:04:09.484Z,81.68
2018-05-18T03:06:35.326Z,81.95
2018-05-18T03:09:01.185Z,83.02
2018-05-18T03:11:27.078Z,83.54
2018-05-18T03:13:52.899Z,83.11
2018-05-18T03:16:18.760Z,83.27
2018-05-18T03:18:44.590Z,84.29
2018-05-18T03:21:10.432Z,84.32
2018-05-18T03:23:36.289Z,83.86
2018-05-18T03:26:02.181Z,84.63
2018-05-18T03:28:28.024Z,84.32
2018-05-18T03:30:53.861Z,84.26
2018-05-18T03:33:19.721Z,82.77
2018-05-18T03:35:45.604Z,81.73
2018-05-18T03:38:11.453Z,82.68
2018-05-18T03:40:37.274Z,82.76
2018-05-18T03:43:03.125Z,82.21
2018-05-18T03:45:28.997Z,82.89
2018-05-18T03:47:54.972Z,81.94
2018-05-18T03:50:20.814Z,81.34
2018-05-18T03:52:46.644Z,81.52
2018-05-18T03:55:12.483Z,81.33
2018-05-18T03:57:38.329Z,81.26
2018-05-18T04:00:04.413Z,80.83
2018-05-18T04:02:42.673Z,82.66
2018-05-18T04:05:20.921Z,82.83
2018-05-18T04:07:59.004Z,82.83
2018-05-18T04:10:24.966Z,82.99
2018-05-18T04:12:50.720Z,83.29
2018-05-18T04:15:16.575Z,82.78
2018-05-18T04:17:42.433Z,81.36
2018-05-18T04:20:08.274Z,80.64
2018-05-18T04:22:34.128Z,80.74
2018-05-18T04:24:59.980Z,80.67
2018-05-18T04:27:25.836Z,81.13
2018-05-18T04:29:51.693Z,82.90
2018-05-18T04:32:17.556Z,81.46
2018-05-18T04:34:43.429Z,81.37
2018-05-18T04:37:09.294Z,81.36
2018-05-18T04:39:35.133Z,81.68
2018-05-18T04:42:01.002Z,81.24
2018-05-18T04:44:26.860Z,81.24
2018-05-18T04:46:52.725Z,83.20
2018-05-18T04:49:18.583Z,83.35
2018-05-18T04:51:44.448Z,82.68
2018-05-18T04:54:10.287Z,81.56
2018-05-18T04:56:36.112Z,81.18
2018-05-18T04:59:01.960Z,81.80
2018-05-18T05:01:27.814Z,82.74
2018-05-18T05:03:53.646Z,82.08
2018-05-18T05:06:19.520Z,82.47
2018-05-18T05:08:45.389Z,81.63
2018-05-18T05:11:11.217Z,81.12
2018-05-18T05:13:37.068Z,81.19
2018-05-18T05:16:02.896Z,81.04
2018-05-18T05:18:28.755Z,81.96
2018-05-18T05:20:54.692Z,81.58
2018-05-18T05:23:20.584Z,81.89
2018-05-18T05:25:46.412Z,81.95
2018-05-18T05:28:12.252Z,82.64
2018-05-18T05:30:38.185Z,82.91
2018-05-18T05:33:03.953Z,82.33
2018-05-18T05:35:29.812Z,82.15
2018-05-18T05:37:55.646Z,81.37
2018-05-18T05:40:21.504Z,81.61
2018-05-18T05:42:54.391Z,81.93
2018-05-18T05:45:20.237Z,81.63
2018-05-18T05:47:46.144Z,81.34
2018-05-18T05:50:12.021Z,80.14
2018-05-18T05:52:37.857Z,79.58
2018-05-18T05:55:03.776Z,78.75
2018-05-18T05:57:29.636Z,78.94
2018-05-18T05:59:55.477Z,79.02
2018-05-18T06:02:21.320Z,79.30
2018-05-18T06:04:47.160Z,79.93
2018-05-18T06:07:13.000Z,78.96
2018-05-18T06:09:38.872Z,77.83
2018-05-18T06:12:04.746Z,77.13
2018-05-18T06:14:30.613Z,76.55
2018-05-18T06:16:56.470Z,74.34
2018-05-18T06:19:22.357Z,73.82
2018-05-18T06:21:48.210Z,72.83
2018-05-18T06:24:14.077Z,72.29
2018-05-18T06:26:39.908Z,72.33
2018-05-18T06:29:05.728Z,72.46
2018-05-18T06:31:31.608Z,72.07
2018-05-18T06:33:57.502Z,70.39
2018-05-18T06:36:23.335Z,70.51
2018-05-18T06:38:49.164Z,70.70
2018-05-18T06:41:15.055Z,69.23
2018-05-18T06:43:40.864Z,67.04
2018-05-18T06:46:06.755Z,65.73
2018-05-18T06:48:32.605Z,66.23
2018-05-18T06:50:58.476Z,67.97
2018-05-18T06:53:24.341Z,66.80
2018-05-18T06:55:50.196Z,66.11
2018-05-18T06:58:16.033Z,66.50
2018-05-18T07:00:41.897Z,67.71
2018-05-18T07:03:07.735Z,66.41
2018-05-18T07:05:33.637Z,66.38
2018-05-18T07:07:59.465Z,65.23
2018-05-18T07:10:25.306Z,62.30
2018-05-18T07:12:51.167Z,61.41
2018-05-18T07:15:17.029Z,61.93
2018-05-18T07:17:42.898Z,61.50
2018-05-18T07:20:08.778Z,61.24
2018-05-18T07:22:34.647Z,61.26
2018-05-18T07:25:00.519Z,64.89
2018-05-18T07:27:26.388Z,62.90
2018-05-18T07:29:52.225Z,60.75
2018-05-18T07:32:18.097Z,60.49
2018-05-18T07:34:43.988Z,61.56
2018-05-18T07:37:09.829Z,61.48
2018-05-18T07:39:35.683Z,61.33
2018-05-18T07:42:01.498Z,59.12
2018-05-18T07:44:27.352Z,57.24
2018-05-18T07:46:53.218Z,58.70
2018-05-18T07:49:19.080Z,60.46
2018-05-18T07:51:44.932Z,59.12
2018-05-18T07:54:10.798Z,58.23
2018-05-18T07:56:36.633Z,60.56
2018-05-18T07:59:02.505Z,60.15
2018-05-18T08:01:28.360Z,60.40
2018-05-18T08:03:54.316Z,58.54
2018-05-18T08:06:20.149Z,56.61
2018-05-18T08:08:46.015Z,54.11
2018-05-18T08:11:11.879Z,52.38
2018-05-18T08:13:37.703Z,51.50
2018-05-18T08:16:03.606Z,52.00
2018-05-18T08:18:29.435Z,53.06
2018-05-18T08:20:55.280Z,55.35
2018-05-18T08:23:21.156Z,56.10
2018-05-18T08:25:47.017Z,55.18
2018-05-18T08:28:12.859Z,54.42
2018-05-18T08:30:51.018Z,53.07
2018-05-18T08:33:16.848Z,55.29
2018-05-18T08:35:42.708Z,53.74
2018-05-18T08:38:08.566Z,51.16
2018-05-18T08:40:34.404Z,50.17
2018-05-18T08:43:00.368Z,51.00
2018-05-18T08:45:26.272Z,51.79
2018-05-18T08:47:52.181Z,51.24
2018-05-18T08:50:18.107Z,54.59
2018-05-18T08:52:43.908Z,53.53
2018-05-18T08:55:09.745Z,53.71
2018-05-18T08:57:35.614Z,49.99
2018-05-18T09:00:01.453Z,50.03
2018-05-18T09:02:27.316Z,47.91
2018-05-18T09:04:53.184Z,47.00
2018-05-18T09:07:19.034Z,47.11
2018-05-18T09:09:44.893Z,47.87
2018-05-18T09:12:10.741Z,47.79
2018-05-18T09:14:36.641Z,48.56
2018-05-18T09:17:02.478Z,48.74
2018-05-18T09:19:28.305Z,48.91
2018-05-18T09:21:54.170Z,48.18
2018-05-18T09:24:20.009Z,47.93
2018-05-18T09:26:45.884Z,48.50
2018-05-18T09:29:11.717Z,48.74
2018-05-18T09:31:37.583Z,54.17
2018-05-18T09:34:03.456Z,53.33
2018-05-18T09:36:29.364Z,53.35
2018-05-18T09:38:55.220Z,54.69
2018-05-18T09:41:21.089Z,52.44
2018-05-18T09:43:46.985Z,49.99
2018-05-18T09:46:12.841Z,42.84
2018-05-18T09:48:38.688Z,43.33
2018-05-18T09:51:04.521Z,43.79
2018-05-18T09:53:30.380Z,48.12
2018-05-18T09:55:56.235Z,48.58
2018-05-18T09:58:22.081Z,45.36
2018-05-18T10:00:47.949Z,43.47
2018-05-18T10:03:13.809Z,43.35
2018-05-18T10:05:39.626Z,44.62
2018-05-18T10:08:05.465Z,43.97
2018-05-18T10:10:31.334Z,43.62
2018-05-18T10:12:57.157Z,41.89
2018-05-18T10:15:23.009Z,42.89
2018-05-18T10:17:48.844Z,42.19
2018-05-18T10:20:14.724Z,41.50
2018-05-18T10:22:40.561Z,43.24
2018-05-18T10:25:06.384Z,43.74
2018-05-18T10:27:32.338Z,45.67
2018-05-18T10:29:58.137Z,47.38
2018-05-18T10:32:24.017Z,49.07
2018-05-18T10:34:49.853Z,38.44
2018-05-18T10:37:15.741Z,36.69
2018-05-18T10:39:41.614Z,42.27
2018-05-18T10:42:07.535Z,43.79
2018-05-18T10:44:33.373Z,44.59
2018-05-18T10:46:59.229Z,45.36
2018-05-18T10:49:25.259Z,48.08
2018-05-18T10:51:51.041Z,47.53
2018-05-18T10:54:16.898Z,45.96
2018-05-18T10:56:42.760Z,45.92
2018-05-18T10:59:08.630Z,47.49
2018-05-18T11:01:34.500Z,45.81
2018-05-18T11:04:00.387Z,47.00
2018-05-18T11:06:26.293Z,48.21
2018-05-18T11:08:52.156Z,46.44
2018-05-18T11:11:18.022Z,46.53
2018-05-18T11:13:43.853Z,46.94
2018-05-18T11:16:09.690Z,47.11
2018-05-18T11:18:35.550Z,46.83
2018-05-18T11:21:01.397Z,45.52
2018-05-18T11:23:27.269Z,42.89
2018-05-18T11:25:53.144Z,45.19
2018-05-18T11:28:19.011Z,44.66
2018-05-18T11:30:44.874Z,43.33
2018-05-18T11:33:10.754Z,43.45
2018-05-18T11:35:36.565Z,42.74
2018-05-18T11:38:02.416Z,41.28
2018-05-18T11:40:28.261Z,39.52
2018-05-18T11:42:54.124Z,41.14
2018-05-18T11:45:19.964Z,39.93
2018-05-18T11:47:45.818Z,38.66
2018-05-18T11:50:11.662Z,37.32
2018-05-18T11:52:37.505Z,37.06
2018-05-18T11:55:03.483Z,37.35
2018-05-18T11:57:29.341Z,38.28
2018-05-18T11:59:55.184Z,37.42
2018-05-18T12:02:21.117Z,34.72
2018-05-18T12:04:46.913Z,35.52
2018-05-18T12:07:12.737Z,35.51
2018-05-18T12:09:38.609Z,38.16
2018-05-18T12:12:04.488Z,40.18
2018-05-18T12:14:30.364Z,41.10
2018-05-18T12:16:56.216Z,41.10
2018-05-18T12:19:22.061Z,41.67
2018-05-18T12:21:47.905Z,40.93
2018-05-18T12:24:13.741Z,40.82
2018-05-18T12:26:39.590Z,41.01
2018-05-18T12:29:05.460Z,39.76
2018-05-18T12:31:31.419Z,40.76
2018-05-18T12:33:57.166Z,40.04
2018-05-18T12:36:23.032Z,40.58
2018-05-18T12:38:48.875Z,39.71
2018-05-18T12:41:14.753Z,37.54
2018-05-18T12:43:40.635Z,38.33
2018-05-18T12:46:06.520Z,38.76
2018-05-18T12:48:32.412Z,37.34
2018-05-18T12:50:58.252Z,37.08
2018-05-18T12:53:24.138Z,36.35
2018-05-18T12:55:50.024Z,36.63
2018-05-18T12:58:15.873Z,36.78
2018-05-18T13:00:41.722Z,34.62
2018-05-18T13:03:07.545Z,35.05
2018-05-18T13:05:33.417Z,35.92
2018-05-18T13:07:59.287Z,35.30
2018-05-18T13:10:25.145Z,35.48
2018-05-18T13:12:50.997Z,35.40
2018-05-18T13:15:16.895Z,34.38
2018-05-18T13:17:42.800Z,34.65
2018-05-18T13:20:08.616Z,33.43
2018-05-18T13:22:34.477Z,34.73
2018-05-18T13:25:00.471Z,35.53
2018-05-18T13:27:26.231Z,35.31
2018-05-18T13:29:52.112Z,35.09
2018-05-18T13:32:17.963Z,34.04
2018-05-18T13:34:43.794Z,32.54
2018-05-18T13:37:09.677Z,35.11
2018-05-18T13:39:35.550Z,35.19
2018-05-18T13:42:01.428Z,34.39
2018-05-18T13:44:27.288Z,35.07
2018-05-18T13:46:53.357Z,31.77
2018-05-18T13:49:19.212Z,32.91
2018-05-18T13:51:45.172Z,34.55
2018-05-18T13:54:10.989Z,33.04
2018-05-18T13:56:36.870Z,34.42
2018-05-18T13:59:02.771Z,34.14
2018-05-18T14:01:28.610Z,34.60
2018-05-18T14:03:54.511Z,34.63
2018-05-18T14:06:20.381Z,33.80
2018-05-18T14:08:46.249Z,35.33
2018-05-18T14:11:12.183Z,34.07
2018-05-18T14:13:38.013Z,34.39
2018-05-18T14:16:03.930Z,34.48
2018-05-18T14:18:29.800Z,33.98
2018-05-18T14:20:55.713Z,33.15
2018-05-18T14:23:21.569Z,34.53
2018-05-18T14:25:47.464Z,33.43
2018-05-18T14:28:13.362Z,31.14
2018-05-18T14:30:39.257Z,31.03
2018-05-18T14:33:05.145Z,33.73
2018-05-18T14:35:31.037Z,34.31
2018-05-18T14:37:56.986Z,34.36
2018-05-18T14:40:22.816Z,33.79
2018-05-18T14:42:48.671Z,33.87
2018-05-18T14:45:14.525Z,34.22
2018-05-18T14:47:41.222Z,35.42
2018-05-18T14:50:07.075Z,35.77
2018-05-18T14:52:32.933Z,35.54
2018-05-18T14:54:58.794Z,34.69
2018-05-18T14:57:24.644Z,35.41
2018-05-18T14:59:50.557Z,36.94
2018-05-18T15:02:16.424Z,34.53
2018-05-18T15:04:42.280Z,33.10
2018-05-18T15:07:08.134Z,34.37
2018-05-18T15:09:33.982Z,34.78
2018-05-18T15:11:59.905Z,35.99
2018-05-18T15:14:25.791Z,35.15
2018-05-18T15:16:51.971Z,35.12
2018-05-18T15:19:17.900Z,35.39
2018-05-18T15:21:43.753Z,34.88
2018-05-18T15:24:10.564Z,35.36
2018-05-18T15:26:36.453Z,34.87
2018-05-18T15:29:03.781Z,35.50
2018-05-18T15:31:29.659Z,34.65
2018-05-18T15:33:55.542Z,35.69
2018-05-18T15:36:21.409Z,36.21
2018-05-18T15:38:47.248Z,36.01
2018-05-18T15:41:13.112Z,34.98
2018-05-18T15:43:38.966Z,34.36
2018-05-18T15:46:04.845Z,35.62
2018-05-18T15:48:30.725Z,35.47
2018-05-18T15:50:56.596Z,33.97
2018-05-18T15:53:22.469Z,34.27
2018-05-18T15:55:48.341Z,35.35
2018-05-18T15:58:14.195Z,35.53
2018-05-18T16:00:40.038Z,36.97
2018-05-18T16:03:05.901Z,37.13
2018-05-18T16:05:31.760Z,37.23
2018-05-18T16:07:57.633Z,37.36
2018-05-18T16:10:23.488Z,37.25
2018-05-18T16:12:49.404Z,38.13
2018-05-18T16:15:15.236Z,38.31
2018-05-18T16:17:41.105Z,38.46
2018-05-18T16:20:06.977Z,38.90
2018-05-18T16:22:32.853Z,39.24
2018-05-18T16:24:58.693Z,38.97
2018-05-18T16:27:24.553Z,39.74
2018-05-18T16:29:50.429Z,39.24
2018-05-18T16:32:16.268Z,39.72
2018-05-18T16:34:42.168Z,40.44
2018-05-18T16:37:08.030Z,41.00
2018-05-18T16:39:33.953Z,41.28
2018-05-18T16:41:59.824Z,40.69
2018-05-18T16:44:27.008Z,40.67
2018-05-18T16:46:52.977Z,41.07
2018-05-18T16:49:18.862Z,41.22
2018-05-18T16:51:44.819Z,41.31
2018-05-18T16:54:10.708Z,41.03
2018-05-18T16:56:36.625Z,41.71
2018-05-18T16:59:02.622Z,41.82
2018-05-18T17:01:28.500Z,42.13
2018-05-18T17:03:54.381Z,42.39
2018-05-18T17:06:20.291Z,43.26
2018-05-18T17:08:46.165Z,42.84
2018-05-18T17:11:12.056Z,43.29
2018-05-18T17:13:37.945Z,43.62
2018-05-18T17:16:03.829Z,43.60
2018-05-18T17:18:29.706Z,43.61
2018-05-18T17:20:55.581Z,43.99
2018-05-18T17:23:21.500Z,43.86
2018-05-18T17:25:47.430Z,44.57
2018-05-18T17:28:13.260Z,44.75
2018-05-18T17:30:39.236Z,44.67
2018-05-18T17:33:05.221Z,45.19
2018-05-18T17:35:31.012Z,45.79
2018-05-18T17:37:56.953Z,46.16
2018-05-18T17:40:22.848Z,46.04
2018-05-18T17:42:48.732Z,46.82
2018-05-18T17:45:14.629Z,47.57
2018-05-18T17:47:40.478Z,47.89
2018-05-18T17:50:06.342Z,47.85
2018-05-18T17:52:32.213Z,48.35
2018-05-18T17:54:58.106Z,49.18
2018-05-18T17:57:24.032Z,49.13
2018-05-18T17:59:49.940Z,49.66
2018-05-18T18:02:15.829Z,49.60
2018-05-18T18:04:45.713Z,49.28
2018-05-18T18:07:11.625Z,50.15
2018-05-18T18:09:37.477Z,51.17
2018-05-18T18:12:03.368Z,51.04
2018-05-18T18:14:29.252Z,51.24
2018-05-18T18:16:55.133Z,51.61
2018-05-18T18:19:21.001Z,52.29
2018-05-18T18:21:46.912Z,52.26
2018-05-18T18:24:12.770Z,53.20
2018-05-18T18:26:38.661Z,52.92
2018-05-18T18:29:04.571Z,53.53
2018-05-18T18:31:30.444Z,53.65
2018-05-18T18:33:56.345Z,53.45
2018-05-18T18:36:22.265Z,54.43
2018-05-18T18:38:48.075Z,54.59
2018-05-18T18:41:13.943Z,54.92
2018-05-18T18:43:39.954Z,55.15
2018-05-18T18:46:05.840Z,55.46
2018-05-18T18:48:31.749Z,55.75
2018-05-18T18:50:57.652Z,55.68
2018-05-18T18:53:23.537Z,56.13
2018-05-18T18:55:49.400Z,56.55
2018-05-18T18:58:15.265Z,56.15
2018-05-18T19:00:41.138Z,56.74
2018-05-18T19:03:07.020Z,56.97
2018-05-18T19:05:32.865Z,57.00
2018-05-18T19:07:58.850Z,57.06
2018-05-18T19:10:24.632Z,56.95
2018-05-18T19:12:50.486Z,56.81
2018-05-18T19:15:16.406Z,57.97
2018-05-18T19:17:42.311Z,58.04
2018-05-18T19:20:08.188Z,58.22
2018-05-18T19:22:34.063Z,58.27
2018-05-18T19:24:59.988Z,58.24
2018-05-18T19:27:25.945Z,57.83
2018-05-18T19:29:51.819Z,58.21
2018-05-18T19:32:17.721Z,57.54
2018-05-18T19:34:43.605Z,57.56
2018-05-18T19:37:09.513Z,57.92
2018-05-18T19:39:35.404Z,58.08
2018-05-18T19:42:01.310Z,58.07
2018-05-18T19:44:27.322Z,57.40
2018-05-18T19:46:53.229Z,57.33
2018-05-18T19:49:19.130Z,57.38
2018-05-18T19:51:45.010Z,57.38
2018-05-18T19:54:10.872Z,57.01
2018-05-18T19:56:36.771Z,57.28
2018-05-18T19:59:02.693Z,58.03
2018-05-18T20:01:28.593Z,58.75
2018-05-18T20:03:54.453Z,59.50
2018-05-18T20:06:20.288Z,60.06
2018-05-18T20:08:46.143Z,60.70
2018-05-18T20:11:12.015Z,60.26
2018-05-18T20:13:37.910Z,61.35
2018-05-18T20:16:03.817Z,62.06
2018-05-18T20:18:29.761Z,63.21
2018-05-18T20:20:55.617Z,63.70
2018-05-18T20:23:21.516Z,64.42
2018-05-18T20:25:47.384Z,64.94
2018-05-18T20:28:13.397Z,65.76
2018-05-18T20:30:39.320Z,66.50
2018-05-18T20:33:05.288Z,65.64
2018-05-18T20:35:31.221Z,66.42
2018-05-18T20:37:57.104Z,66.01
2018-05-18T20:40:22.998Z,65.58
2018-05-18T20:42:48.863Z,66.47
2018-05-18T20:45:14.777Z,67.51
2018-05-18T20:47:40.645Z,67.25
2018-05-18T20:50:06.506Z,68.93
2018-05-18T20:52:32.400Z,69.59
2018-05-18T20:54:58.251Z,69.95
2018-05-18T20:57:24.101Z,69.62
2018-05-18T20:59:49.980Z,70.07
2018-05-18T21:02:15.862Z,70.54
2018-05-18T21:04:41.739Z,70.57
2018-05-18T21:07:07.585Z,70.94
2018-05-18T21:09:33.422Z,70.92
2018-05-18T21:11:59.270Z,70.12
2018-05-18T21:14:25.144Z,69.28
2018-05-18T21:16:50.999Z,70.97
2018-05-18T21:19:16.861Z,71.96
2018-05-18T21:21:42.703Z,72.32
2018-05-18T21:24:08.569Z,71.65
2018-05-18T21:26:34.422Z,71.70
2018-05-18T21:29:03.003Z,70.95
2018-05-18T21:31:28.886Z,70.10
2018-05-18T21:33:54.742Z,71.70
2018-05-18T21:36:20.646Z,70.52
2018-05-18T21:38:46.521Z,69.77
2018-05-18T21:41:12.368Z,69.65
2018-05-18T21:43:38.272Z,69.74
2018-05-18T21:46:04.183Z,69.66
2018-05-18T21:48:30.065Z,69.28
2018-05-18T21:50:55.924Z,69.46
2018-05-18T21:53:21.764Z,71.63
2018-05-18T21:55:47.627Z,70.78
2018-05-18T21:58:13.477Z,70.83
2018-05-18T22:00:39.369Z,70.54
2018-05-18T22:03:05.244Z,70.06
2018-05-18T22:05:31.125Z,69.23
2018-05-18T22:07:57.012Z,69.47
2018-05-18T22:10:22.886Z,71.20
2018-05-18T22:12:48.713Z,71.56
2018-05-18T22:15:14.560Z,73.54
2018-05-18T22:17:40.419Z,74.08
2018-05-18T22:20:06.294Z,74.34
2018-05-18T22:22:32.173Z,73.33
2018-05-18T22:24:58.051Z,72.36
2018-05-18T22:27:23.937Z,72.96
2018-05-18T22:29:49.802Z,74.40
2018-05-18T22:32:15.674Z,75.53
2018-05-18T22:34:41.556Z,74.54
2018-05-18T22:37:07.450Z,73.69
2018-05-18T22:39:33.309Z,72.86
2018-05-18T22:41:59.180Z,72.17
2018-05-18T22:44:27.482Z,71.79
2018-05-18T22:46:53.363Z,72.02
2018-05-18T22:49:19.248Z,73.57
2018-05-18T22:51:45.119Z,73.93
2018-05-18T22:54:10.993Z,72.88
2018-05-18T22:56:36.829Z,72.09
2018-05-18T22:59:02.731Z,72.17
2018-05-18T23:01:28.582Z,72.23
2018-05-18T23:03:54.455Z,73.04
2018-05-18T23:06:20.309Z,74.36
2018-05-18T23:08:46.159Z,73.86
2018-05-18T23:11:12.018Z,76.88
2018-05-18T23:13:37.836Z,76.11
2018-05-18T23:16:03.697Z,74.74
2018-05-18T23:18:29.577Z,74.09
2018-05-18T23:20:55.461Z,73.79
2018-05-18T23:23:21.333Z,73.48
2018-05-18T23:25:47.237Z,73.55
2018-05-18T23:28:13.056Z,73.70
2018-05-18T23:30:38.912Z,73.91
2018-05-18T23:33:04.852Z,73.71
2018-05-18T23:35:30.713Z,74.53
2018-05-18T23:37:56.591Z,75.49
2018-05-18T23:40:22.448Z,75.49
2018-05-18T23:42:48.281Z,75.04
2018-05-18T23:45:14.126Z,74.94
2018-05-18T23:47:39.977Z,75.77
2018-05-18T23:50:05.837Z,75.90
2018-05-18T23:52:31.748Z,75.77
2018-05-18T23:54:57.608Z,75.96
2018-05-18T23:57:23.462Z,76.68
2018-05-18T23:59:49.305Z,79.08
